Lammy — PBRE — position and weather

sailwx.info

Track history (hours):
 
Tides and Currents Weather Stations Pressure Air Temp Water Temp Dewpoint Dewpoint Depression Visibility Wind Speed Wind Dir Waves Ship Positions

Lammy

Last reported at 2014-Dec-19 11:28 UTC. Time now 2014-Dec-20 01:35 UTC.
Position N 53°30' E 004°38'.

Length 95 m; draft 5.5 m.

Type: Cargo ship. MMSI: 245391000.

Date/timePositionNaut miles runAvg speedWind from/ knotsBaromVisibWave heightAir tempDewpointWater temp
2014-Dec-19 11:28N 53°30' E 004°38'7 8.0
2014-Dec-19 10:33N 53°30' E 004°51'0 0.5
2014-Dec-19 09:32N 53°30' E 004°52'0 0.0
2014-Dec-19 08:29N 53°30' E 004°52'0 0.0
2014-Dec-19 07:32N 53°30' E 004°52'2 1.7
2014-Dec-19 06:33N 53°31' E 004°51'5 4.7
2014-Dec-19 05:33N 53°33' E 004°58'7 7.5
2014-Dec-19 04:33N 53°36' E 005°10'8 7.8
2014-Dec-19 03:33N 53°38' E 005°22'8 7.8
2014-Dec-19 02:33N 53°40' E 005°35'8 7.6
2014-Dec-19 01:33N 53°42' E 005°47'67 8.4
2014-Dec-18 17:33N 53°60' E 007°37'9 9.3
2014-Dec-18 16:33N 54°02' E 007°52'10 9.9
2014-Dec-18 15:33N 54°01' E 008°09'1211.8
2014-Dec-18 14:33N 53°59' E 008°29'1413.6
2014-Dec-18 13:34N 53°51' E 008°47'1312.9
2014-Dec-18 12:33N 53°54' E 009°09'4 4.3
2014-Dec-18 11:33N 53°57' E 009°14'8 8.1
2014-Dec-18 10:33N 54°04' E 009°19'8 7.7
2014-Dec-18 09:33N 54°10' E 009°27'7 7.1
2014-Dec-18 08:33N 54°15' E 009°37'8 7.9
2014-Dec-18 07:33N 54°21' E 009°45'8 7.6
2014-Dec-18 06:33N 54°21' E 009°58'6 6.1
2014-Dec-18 05:33N 54°22' E 010°09'5 5.0
2014-Dec-18 04:33N 54°26' E 010°13'1110.7
2014-Dec-18 03:33N 54°33' E 010°28'4010.1
2014-Dec-17 23:33N 54°29' E 011°38'1111.3
2014-Dec-17 22:33N 54°27' E 011°57'9 9.5
2014-Dec-17 21:33N 54°31' E 012°11'5811.0
2014-Dec-17 16:16N 55°00' E 013°39'811.2
2014-Dec-17 15:33N 55°03' E 013°52'1110.8
2014-Dec-17 14:33N 55°08' E 014°09'1110.9
2014-Dec-17 13:33N 55°16' E 014°21'1010.5
2014-Dec-17 12:33N 55°24' E 014°34'1010.1
2014-Dec-17 11:33N 55°30' E 014°48'1010.3
2014-Dec-17 10:33N 55°35' E 015°03'  
2014-Dec-09 16:09N 57°23' E 017°44'710.6
2014-Dec-09 15:32N 57°17' E 017°39'  
Track history (hours):
 
Tides and Currents Weather Stations Pressure Air Temp Water Temp Dewpoint Dewpoint Depression Visibility Wind Speed Wind Dir Waves Ship Positions

Lammy

Last reported at 2014-Dec-19 11:28 UTC. Time now 2014-Dec-20 01:35 UTC.
Position N 53°30' E 004°38'.

Length 95 m; draft 5.5 m.

Type: Cargo ship. MMSI: 245391000.

Date/timePositionNaut miles runAvg speedWind from/ knotsBaromVisibWave heightAir tempDewpointWater temp
2014-Dec-19 11:28N 53°30' E 004°38'7 8.0
2014-Dec-19 10:33N 53°30' E 004°51'0 0.5
2014-Dec-19 09:32N 53°30' E 004°52'0 0.0
2014-Dec-19 08:29N 53°30' E 004°52'0 0.0
2014-Dec-19 07:32N 53°30' E 004°52'2 1.7
2014-Dec-19 06:33N 53°31' E 004°51'5 4.7
2014-Dec-19 05:33N 53°33' E 004°58'7 7.5
2014-Dec-19 04:33N 53°36' E 005°10'8 7.8
2014-Dec-19 03:33N 53°38' E 005°22'8 7.8
2014-Dec-19 02:33N 53°40' E 005°35'8 7.6
2014-Dec-19 01:33N 53°42' E 005°47'67 8.4
2014-Dec-18 17:33N 53°60' E 007°37'9 9.3
2014-Dec-18 16:33N 54°02' E 007°52'10 9.9
2014-Dec-18 15:33N 54°01' E 008°09'1211.8
2014-Dec-18 14:33N 53°59' E 008°29'1413.6
2014-Dec-18 13:34N 53°51' E 008°47'1312.9
2014-Dec-18 12:33N 53°54' E 009°09'4 4.3
2014-Dec-18 11:33N 53°57' E 009°14'8 8.1
2014-Dec-18 10:33N 54°04' E 009°19'8 7.7
2014-Dec-18 09:33N 54°10' E 009°27'7 7.1
2014-Dec-18 08:33N 54°15' E 009°37'8 7.9
2014-Dec-18 07:33N 54°21' E 009°45'8 7.6
2014-Dec-18 06:33N 54°21' E 009°58'6 6.1
2014-Dec-18 05:33N 54°22' E 010°09'5 5.0
2014-Dec-18 04:33N 54°26' E 010°13'1110.7
2014-Dec-18 03:33N 54°33' E 010°28'4010.1
2014-Dec-17 23:33N 54°29' E 011°38'1111.3
2014-Dec-17 22:33N 54°27' E 011°57'9 9.5
2014-Dec-17 21:33N 54°31' E 012°11'5811.0
2014-Dec-17 16:16N 55°00' E 013°39'811.2
2014-Dec-17 15:33N 55°03' E 013°52'1110.8
2014-Dec-17 14:33N 55°08' E 014°09'1110.9
2014-Dec-17 13:33N 55°16' E 014°21'1010.5
2014-Dec-17 12:33N 55°24' E 014°34'1010.1
2014-Dec-17 11:33N 55°30' E 014°48'1010.3
2014-Dec-17 10:33N 55°35' E 015°03'  
2014-Dec-09 16:09N 57°23' E 017°44'710.6
2014-Dec-09 15:32N 57°17' E 017°39'  

Dump ship's entire track history